createdAt,value
2018-07-11T00:00:15.327Z,0
2018-07-11T00:00:55.851Z,0
2018-07-11T00:01:36.384Z,0
2018-07-11T00:02:16.902Z,0
2018-07-11T00:02:57.421Z,0
2018-07-11T00:03:37.943Z,0
2018-07-11T00:04:18.475Z,0
2018-07-11T00:04:58.997Z,0
2018-07-11T00:05:39.520Z,0
2018-07-11T00:06:20.040Z,0
2018-07-11T00:07:00.592Z,0
2018-07-11T00:07:41.107Z,0
2018-07-11T00:08:21.625Z,0
2018-07-11T00:09:02.131Z,0
2018-07-11T00:09:42.656Z,0
2018-07-11T00:10:23.179Z,0
2018-07-11T00:11:03.708Z,0
2018-07-11T00:11:44.243Z,0
2018-07-11T00:12:24.768Z,0
2018-07-11T00:13:05.302Z,0
2018-07-11T00:13:45.823Z,0
2018-07-11T00:14:26.355Z,0
2018-07-11T00:15:06.973Z,0
2018-07-11T00:15:47.421Z,0
2018-07-11T00:16:27.940Z,0
2018-07-11T00:17:08.474Z,0
2018-07-11T00:17:48.988Z,0
2018-07-11T00:18:29.505Z,0
2018-07-11T00:19:10.030Z,0
2018-07-11T00:19:50.550Z,0
2018-07-11T00:20:31.079Z,0
2018-07-11T00:21:11.634Z,0
2018-07-11T00:21:52.168Z,0
2018-07-11T00:22:32.697Z,0
2018-07-11T00:23:13.224Z,0
2018-07-11T00:23:53.770Z,0
2018-07-11T00:24:34.275Z,0
2018-07-11T00:25:14.810Z,0
2018-07-11T00:25:55.327Z,0
2018-07-11T00:26:35.870Z,0
2018-07-11T00:27:16.401Z,0
2018-07-11T00:27:56.916Z,0
2018-07-11T00:28:37.438Z,0
2018-07-11T00:29:17.978Z,0
2018-07-11T00:29:58.498Z,0
2018-07-11T00:30:39.013Z,0
2018-07-11T00:31:19.531Z,0
2018-07-11T00:32:00.054Z,0
2018-07-11T00:32:40.581Z,0
2018-07-11T00:33:21.106Z,0
2018-07-11T00:34:01.626Z,0
2018-07-11T00:34:42.159Z,0
2018-07-11T00:35:22.686Z,0
2018-07-11T00:36:03.236Z,0
2018-07-11T00:36:43.776Z,0
2018-07-11T00:37:24.437Z,0
2018-07-11T00:38:04.814Z,0
2018-07-11T00:38:45.347Z,0
2018-07-11T00:39:25.851Z,0
2018-07-11T00:40:06.379Z,0
2018-07-11T00:40:46.896Z,0
2018-07-11T00:41:27.416Z,0
2018-07-11T00:42:07.933Z,0
2018-07-11T00:42:48.449Z,0
2018-07-11T00:43:28.981Z,0
2018-07-11T00:44:09.490Z,0
2018-07-11T00:44:50.020Z,0
2018-07-11T00:45:30.527Z,0
2018-07-11T00:46:11.060Z,0
2018-07-11T00:46:51.577Z,0
2018-07-11T00:47:32.115Z,0
2018-07-11T00:48:12.652Z,0
2018-07-11T00:48:53.182Z,0
2018-07-11T00:49:33.735Z,0
2018-07-11T00:50:14.266Z,0
2018-07-11T00:50:54.779Z,0
2018-07-11T00:51:35.313Z,0
2018-07-11T00:52:15.836Z,0
2018-07-11T00:52:56.378Z,0
2018-07-11T00:53:36.910Z,0
2018-07-11T00:54:17.424Z,0
2018-07-11T00:54:57.950Z,0
2018-07-11T00:55:38.474Z,0
2018-07-11T00:56:19.044Z,0
2018-07-11T00:56:59.535Z,0
2018-07-11T00:57:40.092Z,0
2018-07-11T00:58:20.621Z,0
2018-07-11T00:59:01.146Z,0
2018-07-11T01:01:19.710Z,0
2018-07-11T01:02:00.244Z,0
2018-07-11T01:02:40.762Z,0
2018-07-11T01:03:21.310Z,0
2018-07-11T01:04:01.830Z,0
2018-07-11T01:04:42.362Z,0
2018-07-11T01:05:22.873Z,0
2018-07-11T01:06:03.402Z,0
2018-07-11T01:06:43.913Z,0
2018-07-11T01:07:24.442Z,0
2018-07-11T01:08:04.958Z,0
2018-07-11T01:08:45.472Z,0
2018-07-11T01:09:26.003Z,0
2018-07-11T01:10:06.525Z,0
2018-07-11T01:10:47.049Z,0
2018-07-11T01:11:27.571Z,0
2018-07-11T01:12:08.092Z,0
2018-07-11T01:12:48.620Z,0
2018-07-11T01:13:29.142Z,0
2018-07-11T01:14:09.673Z,0
2018-07-11T01:14:50.187Z,0
2018-07-11T01:15:30.702Z,0
2018-07-11T01:16:11.208Z,0
2018-07-11T01:16:51.734Z,0
2018-07-11T01:17:32.263Z,0
2018-07-11T01:18:12.808Z,0
2018-07-11T01:18:53.321Z,0
2018-07-11T01:19:33.860Z,0
2018-07-11T01:20:14.379Z,0
2018-07-11T01:20:54.900Z,0
2018-07-11T01:21:35.420Z,0
2018-07-11T01:22:15.947Z,0
2018-07-11T01:22:56.484Z,0
2018-07-11T01:23:37.001Z,0
2018-07-11T01:24:17.527Z,0
2018-07-11T01:24:58.030Z,0
2018-07-11T01:25:38.556Z,0
2018-07-11T01:26:19.931Z,0
2018-07-11T01:27:00.466Z,0
2018-07-11T01:27:40.990Z,0
2018-07-11T01:28:21.507Z,0
2018-07-11T01:29:02.090Z,0
2018-07-11T01:29:42.614Z,0
2018-07-11T01:30:23.121Z,0
2018-07-11T01:31:03.627Z,0
2018-07-11T01:31:44.151Z,0
2018-07-11T01:32:24.674Z,0
2018-07-11T01:33:05.182Z,0
2018-07-11T01:33:45.697Z,0
2018-07-11T01:34:26.222Z,0
2018-07-11T01:35:06.738Z,0
2018-07-11T01:35:47.256Z,0
2018-07-11T01:36:27.774Z,0
2018-07-11T01:37:08.284Z,0
2018-07-11T01:37:48.795Z,0
2018-07-11T01:38:29.318Z,0
2018-07-11T01:39:09.832Z,0
2018-07-11T01:39:50.359Z,0
2018-07-11T01:40:30.887Z,0
2018-07-11T01:41:11.393Z,0
2018-07-11T01:41:51.918Z,0
2018-07-11T01:42:32.439Z,0
2018-07-11T01:43:12.972Z,0
2018-07-11T01:43:53.485Z,0
2018-07-11T01:44:34.000Z,0
2018-07-11T01:45:14.517Z,0
2018-07-11T01:45:55.057Z,0
2018-07-11T01:46:35.578Z,0
2018-07-11T01:47:16.112Z,0
2018-07-11T01:47:56.624Z,0
2018-07-11T01:48:37.138Z,0
2018-07-11T01:49:17.671Z,0
2018-07-11T01:49:58.180Z,0
2018-07-11T01:50:38.698Z,0
2018-07-11T01:51:19.232Z,0
2018-07-11T01:51:59.746Z,0
2018-07-11T01:52:40.254Z,0
2018-07-11T01:53:20.767Z,0
2018-07-11T01:54:01.926Z,0
2018-07-11T01:54:42.482Z,0
2018-07-11T01:55:23.017Z,0
2018-07-11T01:56:03.537Z,0
2018-07-11T01:56:44.060Z,0
2018-07-11T01:57:24.599Z,0
2018-07-11T01:58:05.128Z,0
2018-07-11T01:58:45.642Z,0
2018-07-11T01:59:26.183Z,0
2018-07-11T02:00:06.709Z,0
2018-07-11T02:00:47.224Z,0
2018-07-11T02:01:27.741Z,0
2018-07-11T02:02:08.266Z,0
2018-07-11T02:02:48.794Z,0
2018-07-11T02:03:29.337Z,0
2018-07-11T02:04:09.850Z,0
2018-07-11T02:04:50.368Z,0
2018-07-11T02:05:30.884Z,0
2018-07-11T02:06:11.413Z,0
2018-07-11T02:06:51.945Z,0
2018-07-11T02:07:32.477Z,0
2018-07-11T02:08:13.004Z,0
2018-07-11T02:08:53.517Z,0
2018-07-11T02:09:34.048Z,0
2018-07-11T02:10:14.567Z,0
2018-07-11T02:10:55.077Z,0
2018-07-11T02:11:35.610Z,0
2018-07-11T02:12:16.119Z,0
2018-07-11T02:12:56.649Z,0
2018-07-11T02:13:37.176Z,0
2018-07-11T02:14:17.697Z,0
2018-07-11T02:14:58.207Z,0
2018-07-11T02:15:38.724Z,0
2018-07-11T02:16:19.251Z,0
2018-07-11T02:16:59.779Z,0
2018-07-11T02:17:40.323Z,0
2018-07-11T02:18:20.836Z,0
2018-07-11T02:19:01.371Z,0
2018-07-11T02:19:41.892Z,0
2018-07-11T02:20:22.417Z,0
2018-07-11T02:21:02.938Z,0
2018-07-11T02:21:43.466Z,0
2018-07-11T02:22:23.982Z,0
2018-07-11T02:23:04.500Z,0
2018-07-11T02:23:45.025Z,0
2018-07-11T02:24:25.562Z,0
2018-07-11T02:25:06.073Z,0
2018-07-11T02:25:46.622Z,0
2018-07-11T02:26:27.155Z,0
2018-07-11T02:27:07.643Z,0
2018-07-11T02:27:48.149Z,0
2018-07-11T02:28:28.681Z,0
2018-07-11T02:29:09.188Z,0
2018-07-11T02:29:49.700Z,0
2018-07-11T02:30:30.234Z,0
2018-07-11T02:31:10.747Z,0
2018-07-11T02:31:51.268Z,0
2018-07-11T02:32:31.785Z,0
2018-07-11T02:33:12.299Z,0
2018-07-11T02:33:52.821Z,0
2018-07-11T02:34:33.349Z,0
2018-07-11T02:35:13.865Z,0
2018-07-11T02:35:54.394Z,0
2018-07-11T02:36:34.915Z,0
2018-07-11T02:37:15.443Z,0
2018-07-11T02:37:55.968Z,0
2018-07-11T02:38:36.498Z,0
2018-07-11T02:39:17.016Z,0
2018-07-11T02:39:57.531Z,0
2018-07-11T02:40:38.041Z,0
2018-07-11T02:41:18.556Z,0
2018-07-11T02:41:59.080Z,0
2018-07-11T02:42:39.598Z,0
2018-07-11T02:43:20.108Z,0
2018-07-11T02:44:00.640Z,0
2018-07-11T02:44:41.164Z,0
2018-07-11T02:45:21.683Z,0
2018-07-11T02:46:02.213Z,0
2018-07-11T02:46:42.757Z,0
2018-07-11T02:47:23.285Z,0
2018-07-11T02:48:03.794Z,0
2018-07-11T02:48:44.337Z,0
2018-07-11T02:49:24.871Z,0
2018-07-11T02:50:05.382Z,0
2018-07-11T02:50:45.915Z,0
2018-07-11T02:51:26.422Z,0
2018-07-11T02:52:06.944Z,0
2018-07-11T02:52:47.472Z,0
2018-07-11T02:53:27.989Z,0
2018-07-11T02:54:08.514Z,0
2018-07-11T02:54:49.050Z,0
2018-07-11T02:55:29.573Z,0
2018-07-11T02:56:10.095Z,0
2018-07-11T02:56:50.614Z,0
2018-07-11T02:57:31.131Z,0
2018-07-11T02:58:11.655Z,0
2018-07-11T02:58:52.171Z,0
2018-07-11T02:59:32.686Z,0
2018-07-11T03:00:13.216Z,0
2018-07-11T03:00:53.799Z,0
2018-07-11T03:01:34.333Z,0
2018-07-11T03:02:14.854Z,0
2018-07-11T03:02:55.379Z,0
2018-07-11T03:03:35.899Z,0
2018-07-11T03:04:16.416Z,0
2018-07-11T03:04:56.930Z,0
2018-07-11T03:05:37.475Z,0
2018-07-11T03:06:17.992Z,0
2018-07-11T03:06:58.514Z,0
2018-07-11T03:07:39.055Z,0
2018-07-11T03:08:19.567Z,0
2018-07-11T03:09:00.103Z,0
2018-07-11T03:09:40.626Z,0
2018-07-11T03:10:21.136Z,0
2018-07-11T03:11:01.678Z,0
2018-07-11T03:11:42.186Z,0
2018-07-11T03:12:22.715Z,4
2018-07-11T03:13:03.228Z,4
2018-07-11T03:13:43.751Z,4
2018-07-11T03:14:24.282Z,0
2018-07-11T03:15:04.812Z,0
2018-07-11T03:15:45.346Z,4
2018-07-11T03:16:25.864Z,4
2018-07-11T03:17:06.386Z,4
2018-07-11T03:17:46.909Z,4
2018-07-11T03:18:27.434Z,4
2018-07-11T03:19:07.963Z,4
2018-07-11T03:19:48.491Z,4
2018-07-11T03:20:29.021Z,4
2018-07-11T03:21:09.544Z,4
2018-07-11T03:21:50.059Z,4
2018-07-11T03:22:30.593Z,4
2018-07-11T03:23:11.113Z,8
2018-07-11T03:23:51.629Z,4
2018-07-11T03:24:32.143Z,4
2018-07-11T03:25:12.670Z,4
2018-07-11T03:25:53.198Z,8
2018-07-11T03:26:33.719Z,8
2018-07-11T03:27:14.256Z,8
2018-07-11T03:27:54.760Z,8
2018-07-11T03:28:35.285Z,8
2018-07-11T03:29:15.815Z,8
2018-07-11T03:29:56.341Z,12
2018-07-11T03:30:36.901Z,8
2018-07-11T03:31:17.414Z,12
2018-07-11T03:31:57.931Z,12
2018-07-11T03:32:38.556Z,16
2018-07-11T03:33:18.975Z,12
2018-07-11T03:33:59.504Z,16
2018-07-11T03:34:40.027Z,12
2018-07-11T03:35:20.551Z,16
2018-07-11T03:36:01.070Z,16
2018-07-11T03:36:41.586Z,16
2018-07-11T03:37:22.100Z,20
2018-07-11T03:38:02.630Z,20
2018-07-11T03:38:43.179Z,20
2018-07-11T03:39:23.709Z,20
2018-07-11T03:40:04.206Z,24
2018-07-11T03:40:44.728Z,28
2018-07-11T03:41:25.233Z,28
2018-07-11T03:42:05.751Z,32
2018-07-11T03:42:46.287Z,32
2018-07-11T03:43:26.795Z,40
2018-07-11T03:44:07.320Z,40
2018-07-11T03:44:47.845Z,40
2018-07-11T03:45:28.368Z,48
2018-07-11T03:46:08.898Z,48
2018-07-11T03:46:49.417Z,52
2018-07-11T03:47:29.964Z,52
2018-07-11T03:48:10.481Z,56
2018-07-11T03:48:51.009Z,56
2018-07-11T03:49:31.532Z,56
2018-07-11T03:50:12.050Z,56
2018-07-11T03:50:52.576Z,56
2018-07-11T03:51:33.101Z,56
2018-07-11T03:52:15.250Z,56
2018-07-11T03:52:55.898Z,56
2018-07-11T03:53:36.409Z,56
2018-07-11T03:54:16.916Z,64
2018-07-11T03:54:57.434Z,64
2018-07-11T03:55:37.955Z,68
2018-07-11T03:56:18.469Z,72
2018-07-11T03:56:58.991Z,72
2018-07-11T03:57:39.510Z,80
2018-07-11T03:58:20.056Z,80
2018-07-11T03:59:00.589Z,84
2018-07-11T03:59:41.092Z,92
2018-07-11T04:00:21.614Z,100
2018-07-11T04:01:02.124Z,108
2018-07-11T04:01:42.698Z,112
2018-07-11T04:02:23.215Z,120
2018-07-11T04:03:03.721Z,128
2018-07-11T04:03:44.247Z,140
2018-07-11T04:04:24.774Z,144
2018-07-11T04:05:05.291Z,144
2018-07-11T04:05:45.832Z,148
2018-07-11T04:06:26.347Z,148
2018-07-11T04:07:06.844Z,156
2018-07-11T04:07:47.365Z,160
2018-07-11T04:08:27.893Z,160
2018-07-11T04:09:08.433Z,164
2018-07-11T04:09:48.919Z,164
2018-07-11T04:10:29.411Z,168
2018-07-11T04:11:09.934Z,168
2018-07-11T04:11:50.458Z,168
2018-07-11T04:12:30.994Z,168
2018-07-11T04:13:11.516Z,168
2018-07-11T04:13:52.035Z,168
2018-07-11T04:14:32.552Z,168
2018-07-11T04:15:13.058Z,172
2018-07-11T04:15:53.584Z,176
2018-07-11T04:16:34.107Z,184
2018-07-11T04:17:14.633Z,196
2018-07-11T04:17:55.188Z,212
2018-07-11T04:18:35.704Z,228
2018-07-11T04:19:16.221Z,240
2018-07-11T04:19:56.749Z,244
2018-07-11T04:20:37.269Z,248
2018-07-11T04:21:17.792Z,240
2018-07-11T04:21:58.316Z,232
2018-07-11T04:22:38.841Z,220
2018-07-11T04:23:19.376Z,212
2018-07-11T04:23:59.908Z,208
2018-07-11T04:24:40.422Z,196
2018-07-11T04:25:20.935Z,200
2018-07-11T04:26:01.455Z,196
2018-07-11T04:26:41.964Z,192
2018-07-11T04:27:22.492Z,184
2018-07-11T04:28:03.010Z,184
2018-07-11T04:28:43.546Z,184
2018-07-11T04:29:24.078Z,184
2018-07-11T04:30:04.605Z,184
2018-07-11T04:30:45.124Z,188
2018-07-11T04:31:25.643Z,196
2018-07-11T04:32:06.172Z,200
2018-07-11T04:32:46.688Z,208
2018-07-11T04:33:27.309Z,212
2018-07-11T04:34:07.748Z,212
2018-07-11T04:34:48.263Z,216
2018-07-11T04:35:28.804Z,216
2018-07-11T04:36:09.328Z,212
2018-07-11T04:36:49.845Z,212
2018-07-11T04:37:30.359Z,212
2018-07-11T04:38:10.881Z,216
2018-07-11T04:38:51.390Z,216
2018-07-11T04:39:31.905Z,212
2018-07-11T04:40:12.425Z,212
2018-07-11T04:40:52.945Z,208
2018-07-11T04:41:33.478Z,208
2018-07-11T04:42:13.989Z,200
2018-07-11T04:42:54.518Z,200
2018-07-11T04:43:35.023Z,204
2018-07-11T04:44:15.568Z,208
2018-07-11T04:44:56.117Z,212
2018-07-11T04:45:36.632Z,216
2018-07-11T04:46:17.165Z,228
2018-07-11T04:46:57.715Z,236
2018-07-11T04:47:38.244Z,244
2018-07-11T04:48:18.763Z,256
2018-07-11T04:48:59.279Z,268
2018-07-11T04:49:39.819Z,288
2018-07-11T04:50:20.330Z,320
2018-07-11T04:51:00.863Z,344
2018-07-11T04:51:41.381Z,368
2018-07-11T04:52:21.953Z,392
2018-07-11T04:53:02.480Z,412
2018-07-11T04:53:43.009Z,440
2018-07-11T04:54:23.528Z,464
2018-07-11T04:55:04.061Z,472
2018-07-11T04:55:44.583Z,476
2018-07-11T04:56:25.116Z,480
2018-07-11T04:57:05.647Z,496
2018-07-11T04:57:46.178Z,504
2018-07-11T04:58:26.699Z,500
2018-07-11T04:59:07.219Z,484
2018-07-11T04:59:47.740Z,472
2018-07-11T05:00:28.266Z,476
2018-07-11T05:01:08.783Z,508
2018-07-11T05:01:49.315Z,536
2018-07-11T05:02:29.820Z,548
2018-07-11T05:03:10.352Z,548
2018-07-11T05:03:50.873Z,548
2018-07-11T05:04:31.409Z,548
2018-07-11T05:05:11.938Z,556
2018-07-11T05:05:52.465Z,560
2018-07-11T05:06:32.983Z,572
2018-07-11T05:07:13.505Z,580
2018-07-11T05:07:54.026Z,584
2018-07-11T05:08:34.551Z,592
2018-07-11T05:09:15.061Z,596
2018-07-11T05:09:55.564Z,600
2018-07-11T05:10:36.093Z,924
2018-07-11T05:11:16.767Z,960
2018-07-11T05:11:57.150Z,1004
2018-07-11T05:12:37.734Z,1056
2018-07-11T05:13:18.192Z,1088
2018-07-11T05:13:58.721Z,1088
2018-07-11T05:14:39.228Z,1072
2018-07-11T05:15:19.760Z,1072
2018-07-11T05:16:00.251Z,1052
2018-07-11T05:16:40.761Z,1020
2018-07-11T05:17:21.257Z,968
2018-07-11T05:18:01.774Z,928
2018-07-11T05:18:42.309Z,880
2018-07-11T05:19:22.806Z,832
2018-07-11T05:20:03.323Z,788
2018-07-11T05:20:43.834Z,736
2018-07-11T05:21:24.360Z,696
2018-07-11T05:22:04.901Z,692
2018-07-11T05:22:45.407Z,688
2018-07-11T05:23:25.965Z,696
2018-07-11T05:24:06.516Z,624
2018-07-11T05:24:47.022Z,616
2018-07-11T05:25:27.547Z,588
2018-07-11T05:26:08.087Z,580
2018-07-11T05:26:48.620Z,564
2018-07-11T05:27:29.106Z,564
2018-07-11T05:28:09.620Z,572
2018-07-11T05:28:50.151Z,596
2018-07-11T05:29:30.670Z,624
2018-07-11T05:30:11.199Z,648
2018-07-11T05:30:51.686Z,652
2018-07-11T05:31:32.215Z,660
2018-07-11T05:32:12.780Z,664
2018-07-11T05:32:53.312Z,680
2018-07-11T05:33:33.837Z,708
2018-07-11T05:34:14.390Z,716
2018-07-11T05:34:54.913Z,728
2018-07-11T05:35:35.424Z,752
2018-07-11T05:36:15.974Z,780
2018-07-11T05:36:56.465Z,708
2018-07-11T05:37:36.975Z,672
2018-07-11T05:38:17.500Z,660
2018-07-11T05:38:58.033Z,684
2018-07-11T05:39:38.546Z,748
2018-07-11T05:40:19.086Z,820
2018-07-11T05:40:59.616Z,848
2018-07-11T05:41:40.175Z,848
2018-07-11T05:42:20.726Z,856
2018-07-11T05:43:01.230Z,960
2018-07-11T05:43:41.733Z,1040
2018-07-11T05:44:22.267Z,1112
2018-07-11T05:45:02.795Z,1164
2018-07-11T05:45:43.320Z,1200
2018-07-11T05:46:23.845Z,1256
2018-07-11T05:47:04.375Z,1300
2018-07-11T05:47:44.887Z,1356
2018-07-11T05:48:25.434Z,1428
2018-07-11T05:49:05.963Z,1412
2018-07-11T05:49:46.494Z,1368
2018-07-11T05:50:27.016Z,1312
2018-07-11T05:51:07.560Z,1276
2018-07-11T05:51:48.113Z,1284
2018-07-11T05:52:28.640Z,1364
2018-07-11T05:53:09.162Z,1484
2018-07-11T05:53:49.681Z,1568
2018-07-11T05:54:30.206Z,1676
2018-07-11T05:55:10.760Z,1792
2018-07-11T05:55:51.443Z,1888
2018-07-11T05:56:31.877Z,1956
2018-07-11T05:57:12.406Z,1984
2018-07-11T05:57:52.929Z,2108
2018-07-11T05:58:33.461Z,2132
2018-07-11T05:59:14.017Z,2188
2018-07-11T05:59:54.599Z,2272
2018-07-11T06:00:35.115Z,2384
2018-07-11T06:01:16.554Z,2700
2018-07-11T06:01:57.035Z,2948
2018-07-11T06:02:37.527Z,3156
2018-07-11T06:03:18.028Z,3204
2018-07-11T06:03:58.584Z,3520
2018-07-11T06:04:39.054Z,3972
2018-07-11T06:05:19.598Z,4104
2018-07-11T06:06:00.104Z,3760
2018-07-11T06:06:40.621Z,3608
2018-07-11T06:07:21.151Z,3992
2018-07-11T06:08:01.662Z,3052
2018-07-11T06:08:42.196Z,2560
2018-07-11T06:09:22.719Z,2528
2018-07-11T06:10:03.263Z,2416
2018-07-11T06:10:43.802Z,2436
2018-07-11T06:11:24.312Z,2416
2018-07-11T06:12:04.822Z,2512
2018-07-11T06:12:45.363Z,2540
2018-07-11T06:13:25.942Z,2696
2018-07-11T06:14:06.386Z,3044
2018-07-11T06:14:46.917Z,3756
2018-07-11T06:15:27.459Z,4000
2018-07-11T06:16:08.010Z,3964
2018-07-11T06:16:48.542Z,4108
2018-07-11T06:17:29.062Z,5120
2018-07-11T06:18:09.571Z,5636
2018-07-11T06:18:50.087Z,5536
2018-07-11T06:19:32.425Z,4240
2018-07-11T06:20:13.049Z,5000
2018-07-11T06:20:53.484Z,4156
2018-07-11T06:21:33.996Z,6148
2018-07-11T06:22:14.518Z,5872
2018-07-11T06:22:55.060Z,5900
2018-07-11T06:23:35.583Z,5632
2018-07-11T06:24:16.133Z,5552
2018-07-11T06:24:56.652Z,5524
2018-07-11T06:25:37.186Z,5480
2018-07-11T06:26:17.723Z,5304
2018-07-11T06:26:58.232Z,5348
2018-07-11T06:27:38.751Z,5552
2018-07-11T06:28:19.285Z,5568
2018-07-11T06:28:59.822Z,5476
2018-07-11T06:29:40.351Z,5476
2018-07-11T06:30:20.868Z,5380
2018-07-11T06:31:01.395Z,5256
2018-07-11T06:31:41.919Z,5128
2018-07-11T06:32:22.461Z,5220
2018-07-11T06:33:03.023Z,5228
2018-07-11T06:33:43.617Z,5180
2018-07-11T06:34:24.060Z,5172
2018-07-11T06:35:04.584Z,5148
2018-07-11T06:35:45.095Z,5052
2018-07-11T06:36:25.631Z,5312
2018-07-11T06:37:06.165Z,5284
2018-07-11T06:37:46.694Z,5328
2018-07-11T06:38:27.219Z,5360
2018-07-11T06:39:07.760Z,5464
2018-07-11T06:39:48.285Z,5172
2018-07-11T06:40:28.820Z,5204
2018-07-11T06:41:09.348Z,5148
2018-07-11T06:41:49.883Z,5228
2018-07-11T06:42:30.439Z,5120
2018-07-11T06:43:10.934Z,5184
2018-07-11T06:43:51.448Z,5192
2018-07-11T06:44:32.025Z,5192
2018-07-11T06:45:12.536Z,5332
2018-07-11T06:45:53.058Z,5464
2018-07-11T06:46:33.594Z,5680
2018-07-11T06:47:14.104Z,5492
2018-07-11T06:47:54.687Z,5468
2018-07-11T06:48:35.172Z,5632
2018-07-11T06:49:15.704Z,5700
2018-07-11T06:49:56.210Z,5852
2018-07-11T06:50:36.724Z,5816
2018-07-11T06:51:17.234Z,5620
2018-07-11T06:51:57.786Z,5528
2018-07-11T06:52:38.261Z,5388
2018-07-11T06:53:18.796Z,5260
2018-07-11T06:53:59.340Z,5356
2018-07-11T06:54:39.853Z,5004
2018-07-11T06:55:20.376Z,4008
2018-07-11T06:56:00.870Z,3968
2018-07-11T06:56:41.392Z,4172
2018-07-11T06:57:21.905Z,3840
2018-07-11T06:58:02.435Z,3636
2018-07-11T06:58:42.957Z,3668
2018-07-11T06:59:23.482Z,3444
2018-07-11T07:00:04.017Z,3428
2018-07-11T07:00:44.525Z,3332
2018-07-11T07:01:25.038Z,3520
2018-07-11T07:02:05.572Z,3660
2018-07-11T07:02:46.075Z,3740
2018-07-11T07:03:26.638Z,3620
2018-07-11T07:04:07.150Z,3044
2018-07-11T07:04:47.625Z,2784
2018-07-11T07:05:28.146Z,2260
2018-07-11T07:06:08.673Z,1820
2018-07-11T07:06:49.191Z,1448
2018-07-11T07:07:29.703Z,1260
2018-07-11T07:08:10.226Z,1160
2018-07-11T07:08:50.888Z,1100
2018-07-11T07:09:31.407Z,1064
2018-07-11T07:10:11.920Z,1056
2018-07-11T07:10:52.468Z,1076
2018-07-11T07:11:32.988Z,1124
2018-07-11T07:12:13.501Z,1232
2018-07-11T07:12:54.048Z,1456
2018-07-11T07:13:34.573Z,1776
2018-07-11T07:14:15.077Z,2124
2018-07-11T07:14:55.592Z,2236
2018-07-11T07:15:36.101Z,2072
2018-07-11T07:16:16.605Z,1852
2018-07-11T07:16:57.202Z,1624
2018-07-11T07:17:37.725Z,1520
2018-07-11T07:18:18.248Z,1476
2018-07-11T07:18:58.814Z,1448
2018-07-11T07:19:39.350Z,1316
2018-07-11T07:20:19.862Z,1280
2018-07-11T07:21:00.400Z,1144
2018-07-11T07:21:40.919Z,1132
2018-07-11T07:22:21.458Z,1172
2018-07-11T07:23:01.955Z,1292
2018-07-11T07:23:42.474Z,1452
2018-07-11T07:24:23.011Z,1616
2018-07-11T07:25:03.511Z,1792
2018-07-11T07:25:44.049Z,1996
2018-07-11T07:26:24.577Z,2020
2018-07-11T07:27:05.096Z,1956
2018-07-11T07:27:45.643Z,1992
2018-07-11T07:28:26.140Z,2036
2018-07-11T07:29:06.735Z,2304
2018-07-11T07:29:47.273Z,2560
2018-07-11T07:30:27.765Z,2768
2018-07-11T07:31:08.275Z,2808
2018-07-11T07:31:48.810Z,2884
2018-07-11T07:32:29.337Z,2868
2018-07-11T07:33:09.848Z,2904
2018-07-11T07:33:50.376Z,2980
2018-07-11T07:34:30.960Z,3148
2018-07-11T07:35:11.535Z,3428
2018-07-11T07:35:52.067Z,3468
2018-07-11T07:36:32.621Z,3212
2018-07-11T07:37:13.150Z,3076
2018-07-11T07:37:53.661Z,2948
2018-07-11T07:38:34.170Z,2928
2018-07-11T07:39:14.682Z,2848
2018-07-11T07:39:55.204Z,2716
2018-07-11T07:40:35.730Z,2692
2018-07-11T07:41:16.242Z,2724
2018-07-11T07:41:56.761Z,2760
2018-07-11T07:42:37.271Z,2824
2018-07-11T07:43:17.791Z,2844
2018-07-11T07:43:58.293Z,2688
2018-07-11T07:44:38.820Z,2720
2018-07-11T07:45:19.341Z,2784
2018-07-11T07:45:59.860Z,2908
2018-07-11T07:46:40.387Z,2992
2018-07-11T07:47:20.956Z,3144
2018-07-11T07:48:01.434Z,3292
2018-07-11T07:48:41.917Z,3540
2018-07-11T07:49:22.442Z,3572
2018-07-11T07:50:02.956Z,3580
2018-07-11T07:50:43.476Z,3552
2018-07-11T07:51:24.004Z,3572
2018-07-11T07:52:04.506Z,5096
2018-07-11T07:52:45.034Z,3560
2018-07-11T07:53:25.576Z,3456
2018-07-11T07:54:06.089Z,3016
2018-07-11T07:54:46.602Z,2864
2018-07-11T07:55:27.109Z,2732
2018-07-11T07:56:07.664Z,2512
2018-07-11T07:56:48.147Z,2252
2018-07-11T07:57:28.691Z,2216
2018-07-11T07:58:09.200Z,2172
2018-07-11T07:58:49.715Z,2196
2018-07-11T07:59:30.222Z,2276
2018-07-11T08:00:10.764Z,2360
2018-07-11T08:00:51.289Z,2568
2018-07-11T08:01:31.794Z,2752
2018-07-11T08:02:12.336Z,2776
2018-07-11T08:02:52.849Z,2764
2018-07-11T08:03:33.335Z,4032
2018-07-11T08:04:13.858Z,4292
2018-07-11T08:04:54.384Z,4256
2018-07-11T08:05:34.902Z,4160
2018-07-11T08:06:15.458Z,4156
2018-07-11T08:06:56.079Z,4100
2018-07-11T08:07:36.604Z,3916
2018-07-11T08:08:17.124Z,3776
2018-07-11T08:08:57.647Z,3760
2018-07-11T08:09:38.198Z,2260
2018-07-11T08:10:18.743Z,1812
2018-07-11T08:10:59.281Z,1772
2018-07-11T08:11:39.813Z,1960
2018-07-11T08:12:20.336Z,1700
2018-07-11T08:13:00.865Z,1588
2018-07-11T08:13:41.385Z,1564
2018-07-11T08:14:21.915Z,1564
2018-07-11T08:15:02.453Z,1640
2018-07-11T08:15:42.986Z,1688
2018-07-11T08:16:23.500Z,1700
2018-07-11T08:17:04.016Z,1668
2018-07-11T08:17:44.570Z,1656
2018-07-11T08:18:25.112Z,1660
2018-07-11T08:19:05.632Z,1692
2018-07-11T08:19:46.149Z,1732
2018-07-11T08:20:26.676Z,1880
2018-07-11T08:21:07.199Z,1868
2018-07-11T08:21:47.754Z,1892
2018-07-11T08:22:28.275Z,2000
2018-07-11T08:23:08.805Z,2012
2018-07-11T08:23:49.353Z,2036
2018-07-11T08:24:29.878Z,2024
2018-07-11T08:25:10.417Z,2048
2018-07-11T08:25:50.951Z,2164
2018-07-11T08:26:31.488Z,2176
2018-07-11T08:27:12.127Z,2264
2018-07-11T08:27:52.539Z,2340
2018-07-11T08:28:33.027Z,2388
2018-07-11T08:29:14.493Z,2480
2018-07-11T08:29:54.996Z,2752
2018-07-11T08:30:35.504Z,2912
2018-07-11T08:31:16.062Z,2696
2018-07-11T08:31:56.549Z,2672
2018-07-11T08:32:37.087Z,3048
2018-07-11T08:33:17.603Z,3260
2018-07-11T08:33:58.167Z,3232
2018-07-11T08:34:38.770Z,3180
2018-07-11T08:35:19.250Z,3148
2018-07-11T08:35:59.775Z,3200
2018-07-11T08:36:40.274Z,3360
2018-07-11T08:37:20.781Z,3596
2018-07-11T08:38:01.292Z,3640
2018-07-11T08:38:41.803Z,3852
2018-07-11T08:39:22.329Z,4000
2018-07-11T08:40:02.855Z,4128
2018-07-11T08:40:43.388Z,4228
2018-07-11T08:41:23.881Z,4416
2018-07-11T08:42:04.426Z,4232
2018-07-11T08:42:44.921Z,4316
2018-07-11T08:43:25.480Z,4344
2018-07-11T08:44:06.004Z,4164
2018-07-11T08:44:46.538Z,3924
2018-07-11T08:45:27.054Z,3600
2018-07-11T08:46:07.584Z,3272
2018-07-11T08:46:48.117Z,2608
2018-07-11T08:47:28.656Z,2152
2018-07-11T08:48:09.295Z,1948
2018-07-11T08:48:49.696Z,1780
2018-07-11T08:49:30.213Z,1668
2018-07-11T08:50:10.732Z,1524
2018-07-11T08:50:51.250Z,1492
2018-07-11T08:51:31.764Z,1468
2018-07-11T08:52:12.370Z,1472
2018-07-11T08:52:52.876Z,1496
2018-07-11T08:53:33.362Z,1544
2018-07-11T08:54:13.911Z,1608
2018-07-11T08:54:54.432Z,1708
2018-07-11T08:55:34.930Z,1812
2018-07-11T08:56:15.448Z,1904
2018-07-11T08:56:55.966Z,2016
2018-07-11T08:57:36.477Z,2256
2018-07-11T08:58:16.992Z,2468
2018-07-11T08:58:57.506Z,2772
2018-07-11T08:59:38.026Z,2928
2018-07-11T09:00:18.548Z,3044
2018-07-11T09:00:59.056Z,3124
2018-07-11T09:01:39.604Z,3460
2018-07-11T09:02:20.126Z,3072
2018-07-11T09:03:00.645Z,3004
2018-07-11T09:03:41.169Z,2864
2018-07-11T09:04:21.692Z,2888
2018-07-11T09:05:02.232Z,2756
2018-07-11T09:05:42.769Z,2596
2018-07-11T09:06:23.294Z,2628
2018-07-11T09:07:03.804Z,2568
2018-07-11T09:07:44.328Z,2548
2018-07-11T09:08:24.841Z,2512
2018-07-11T09:09:05.336Z,2428
2018-07-11T09:09:45.863Z,2460
2018-07-11T09:10:26.476Z,2520
2018-07-11T09:11:06.885Z,2524
2018-07-11T09:11:49.040Z,2600
2018-07-11T09:12:29.570Z,2564
2018-07-11T09:13:10.103Z,2520
2018-07-11T09:13:50.605Z,2604
2018-07-11T09:14:31.104Z,2548
2018-07-11T09:15:11.631Z,2624
2018-07-11T09:15:52.136Z,2564
2018-07-11T09:16:32.671Z,2536
2018-07-11T09:17:13.180Z,2588
2018-07-11T09:17:53.747Z,2552
2018-07-11T09:18:34.225Z,2696
2018-07-11T09:19:14.769Z,2792
2018-07-11T09:19:55.283Z,2892
2018-07-11T09:20:35.819Z,3004
2018-07-11T09:21:16.378Z,3076
2018-07-11T09:21:56.914Z,3184
2018-07-11T09:22:37.435Z,3336
2018-07-11T09:23:17.950Z,3428
2018-07-11T09:23:58.537Z,3584
2018-07-11T09:24:39.049Z,3664
2018-07-11T09:25:19.536Z,3668
2018-07-11T09:26:00.070Z,3660
2018-07-11T09:26:40.586Z,3696
2018-07-11T09:27:21.095Z,3628